sensor_id;sensor_type;location;lat;lon;timestamp;P1;durP1;ratioP1;P2;durP2;ratioP2
59587;SDS011;45412;54.472;18.464;2022-09-12T00:01:33;6.90;;;1.90;;
59587;SDS011;45412;54.472;18.464;2022-09-12T00:04:21;7.30;;;2.30;;
59587;SDS011;45412;54.472;18.464;2022-09-12T00:07:09;7.20;;;2.20;;
59587;SDS011;45412;54.472;18.464;2022-09-12T00:09:57;8.70;;;2.90;;
59587;SDS011;45412;54.472;18.464;2022-09-12T00:12:45;8.30;;;2.40;;
59587;SDS011;45412;54.472;18.464;2022-09-12T00:15:39;5.90;;;2.00;;
59587;SDS011;45412;54.472;18.464;2022-09-12T00:18:29;8.00;;;2.10;;
59587;SDS011;45412;54.472;18.464;2022-09-12T00:21:17;6.70;;;2.00;;
59587;SDS011;45412;54.472;18.464;2022-09-12T00:24:06;6.40;;;2.20;;
59587;SDS011;45412;54.472;18.464;2022-09-12T00:26:55;7.10;;;1.90;;
59587;SDS011;45412;54.472;18.464;2022-09-12T00:29:43;7.80;;;2.00;;
59587;SDS011;45412;54.472;18.464;2022-09-12T00:32:31;11.80;;;2.40;;
59587;SDS011;45412;54.472;18.464;2022-09-12T00:35:19;7.00;;;2.10;;
59587;SDS011;45412;54.472;18.464;2022-09-12T00:38:07;7.90;;;1.90;;
59587;SDS011;45412;54.472;18.464;2022-09-12T00:40:55;7.20;;;2.10;;
59587;SDS011;45412;54.472;18.464;2022-09-12T00:43:49;6.20;;;2.20;;
59587;SDS011;45412;54.472;18.464;2022-09-12T00:46:51;7.70;;;2.50;;
59587;SDS011;45412;54.472;18.464;2022-09-12T00:52:45;8.30;;;2.30;;
59587;SDS011;45412;54.472;18.464;2022-09-12T00:55:37;8.10;;;2.50;;
59587;SDS011;45412;54.472;18.464;2022-09-12T00:58:31;7.20;;;2.00;;
59587;SDS011;45412;54.472;18.464;2022-09-12T01:01:24;7.40;;;1.90;;
59587;SDS011;45412;54.472;18.464;2022-09-12T01:04:20;7.90;;;2.20;;
59587;SDS011;45412;54.472;18.464;2022-09-12T01:07:09;6.60;;;1.90;;
59587;SDS011;45412;54.472;18.464;2022-09-12T01:09:59;10.20;;;2.40;;
59587;SDS011;45412;54.472;18.464;2022-09-12T01:12:47;8.40;;;2.30;;
59587;SDS011;45412;54.472;18.464;2022-09-12T01:15:38;6.50;;;1.90;;
59587;SDS011;45412;54.472;18.464;2022-09-12T01:28:46;6.70;;;2.50;;
59587;SDS011;45412;54.472;18.464;2022-09-12T01:32:37;7.60;;;2.10;;
59587;SDS011;45412;54.472;18.464;2022-09-12T01:39:29;7.20;;;2.30;;
59587;SDS011;45412;54.472;18.464;2022-09-12T01:42:34;6.40;;;1.90;;
59587;SDS011;45412;54.472;18.464;2022-09-12T01:46:32;6.90;;;2.00;;
59587;SDS011;45412;54.472;18.464;2022-09-12T01:49:23;6.30;;;2.10;;
59587;SDS011;45412;54.472;18.464;2022-09-12T01:58:44;8.20;;;2.50;;
59587;SDS011;45412;54.472;18.464;2022-09-12T02:02:08;8.00;;;2.40;;
59587;SDS011;45412;54.472;18.464;2022-09-12T02:05:01;7.80;;;2.50;;
59587;SDS011;45412;54.472;18.464;2022-09-12T02:08:15;11.50;;;2.70;;
59587;SDS011;45412;54.472;18.464;2022-09-12T02:11:09;6.30;;;2.00;;
59587;SDS011;45412;54.472;18.464;2022-09-12T02:14:05;7.40;;;2.00;;
59587;SDS011;45412;54.472;18.464;2022-09-12T02:17:12;6.30;;;2.10;;
59587;SDS011;45412;54.472;18.464;2022-09-12T02:23:27;7.30;;;2.30;;
59587;SDS011;45412;54.472;18.464;2022-09-12T02:26:30;7.40;;;2.40;;
59587;SDS011;45412;54.472;18.464;2022-09-12T02:29:25;6.70;;;2.40;;
59587;SDS011;45412;54.472;18.464;2022-09-12T02:32:35;8.40;;;2.40;;
59587;SDS011;45412;54.472;18.464;2022-09-12T02:35:52;7.50;;;2.40;;
59587;SDS011;45412;54.472;18.464;2022-09-12T02:38:45;6.10;;;2.40;;
59587;SDS011;45412;54.472;18.464;2022-09-12T02:41:34;8.00;;;2.30;;
59587;SDS011;45412;54.472;18.464;2022-09-12T02:44:24;7.50;;;2.30;;
59587;SDS011;45412;54.472;18.464;2022-09-12T02:47:19;6.10;;;2.30;;
59587;SDS011;45412;54.472;18.464;2022-09-12T02:50:15;8.00;;;2.30;;
59587;SDS011;45412;54.472;18.464;2022-09-12T02:53:04;8.40;;;2.00;;
59587;SDS011;45412;54.472;18.464;2022-09-12T02:55:54;9.20;;;2.40;;
59587;SDS011;45412;54.472;18.464;2022-09-12T02:58:43;8.20;;;2.20;;
59587;SDS011;45412;54.472;18.464;2022-09-12T03:05:23;8.30;;;2.30;;
59587;SDS011;45412;54.472;18.464;2022-09-12T03:08:53;5.90;;;2.10;;
59587;SDS011;45412;54.472;18.464;2022-09-12T03:15:06;6.30;;;2.10;;
59587;SDS011;45412;54.472;18.464;2022-09-12T03:18:03;7.40;;;2.30;;
59587;SDS011;45412;54.472;18.464;2022-09-12T03:21:25;8.10;;;2.50;;
59587;SDS011;45412;54.472;18.464;2022-09-12T03:27:54;7.10;;;2.30;;
59587;SDS011;45412;54.472;18.464;2022-09-12T03:30:54;8.70;;;2.10;;
59587;SDS011;45412;54.472;18.464;2022-09-12T03:33:43;7.70;;;2.30;;
59587;SDS011;45412;54.472;18.464;2022-09-12T03:36:31;19.00;;;2.90;;
59587;SDS011;45412;54.472;18.464;2022-09-12T03:39:20;7.50;;;2.50;;
59587;SDS011;45412;54.472;18.464;2022-09-12T03:42:10;7.40;;;2.10;;
59587;SDS011;45412;54.472;18.464;2022-09-12T03:44:58;5.90;;;2.40;;
59587;SDS011;45412;54.472;18.464;2022-09-12T03:47:47;7.80;;;2.50;;
59587;SDS011;45412;54.472;18.464;2022-09-12T03:50:35;9.10;;;2.50;;
59587;SDS011;45412;54.472;18.464;2022-09-12T03:53:23;7.30;;;2.40;;
59587;SDS011;45412;54.472;18.464;2022-09-12T03:56:12;7.20;;;2.70;;
59587;SDS011;45412;54.472;18.464;2022-09-12T03:59:00;7.10;;;2.30;;
59587;SDS011;45412;54.472;18.464;2022-09-12T04:01:52;7.00;;;2.20;;
59587;SDS011;45412;54.472;18.464;2022-09-12T04:04:40;9.40;;;2.50;;
59587;SDS011;45412;54.472;18.464;2022-09-12T04:07:31;7.20;;;2.30;;
59587;SDS011;45412;54.472;18.464;2022-09-12T04:10:19;6.60;;;2.20;;
59587;SDS011;45412;54.472;18.464;2022-09-12T04:13:07;7.00;;;2.30;;
59587;SDS011;45412;54.472;18.464;2022-09-12T04:15:59;6.20;;;2.40;;
59587;SDS011;45412;54.472;18.464;2022-09-12T04:18:48;6.80;;;2.40;;
59587;SDS011;45412;54.472;18.464;2022-09-12T04:21:36;8.30;;;2.50;;
59587;SDS011;45412;54.472;18.464;2022-09-12T04:24:25;6.60;;;2.20;;
59587;SDS011;45412;54.472;18.464;2022-09-12T04:27:13;6.90;;;2.50;;
59587;SDS011;45412;54.472;18.464;2022-09-12T04:30:02;5.70;;;2.20;;
59587;SDS011;45412;54.472;18.464;2022-09-12T04:32:50;6.80;;;2.50;;
59587;SDS011;45412;54.472;18.464;2022-09-12T04:35:38;8.10;;;2.50;;
59587;SDS011;45412;54.472;18.464;2022-09-12T04:38:26;7.00;;;2.40;;
59587;SDS011;45412;54.472;18.464;2022-09-12T04:44:10;8.20;;;2.40;;
59587;SDS011;45412;54.472;18.464;2022-09-12T04:47:00;6.00;;;2.20;;
59587;SDS011;45412;54.472;18.464;2022-09-12T04:49:47;6.20;;;2.40;;
59587;SDS011;45412;54.472;18.464;2022-09-12T04:52:37;8.30;;;2.70;;
59587;SDS011;45412;54.472;18.464;2022-09-12T04:55:25;7.70;;;2.30;;
59587;SDS011;45412;54.472;18.464;2022-09-12T04:58:13;6.70;;;2.60;;
59587;SDS011;45412;54.472;18.464;2022-09-12T05:03:58;7.80;;;2.60;;
59587;SDS011;45412;54.472;18.464;2022-09-12T05:06:46;9.00;;;2.90;;
59587;SDS011;45412;54.472;18.464;2022-09-12T05:09:34;8.40;;;2.60;;
59587;SDS011;45412;54.472;18.464;2022-09-12T05:12:22;10.50;;;2.40;;
59587;SDS011;45412;54.472;18.464;2022-09-12T05:15:10;8.40;;;2.30;;
59587;SDS011;45412;54.472;18.464;2022-09-12T05:17:58;9.50;;;2.70;;
59587;SDS011;45412;54.472;18.464;2022-09-12T05:20:46;6.70;;;2.50;;
59587;SDS011;45412;54.472;18.464;2022-09-12T05:23:34;7.00;;;2.50;;
59587;SDS011;45412;54.472;18.464;2022-09-12T05:26:22;7.10;;;2.50;;
59587;SDS011;45412;54.472;18.464;2022-09-12T05:29:10;8.10;;;2.50;;
59587;SDS011;45412;54.472;18.464;2022-09-12T05:32:00;10.90;;;2.40;;
59587;SDS011;45412;54.472;18.464;2022-09-12T05:34:48;8.40;;;2.10;;
59587;SDS011;45412;54.472;18.464;2022-09-12T05:37:36;8.30;;;2.40;;
59587;SDS011;45412;54.472;18.464;2022-09-12T05:40:24;7.30;;;2.40;;
59587;SDS011;45412;54.472;18.464;2022-09-12T05:43:12;7.40;;;2.50;;
59587;SDS011;45412;54.472;18.464;2022-09-12T05:46:02;6.80;;;2.40;;
59587;SDS011;45412;54.472;18.464;2022-09-12T05:48:52;9.10;;;2.60;;
59587;SDS011;45412;54.472;18.464;2022-09-12T05:51:44;7.50;;;2.20;;
59587;SDS011;45412;54.472;18.464;2022-09-12T05:54:32;8.80;;;2.30;;
59587;SDS011;45412;54.472;18.464;2022-09-12T05:57:21;7.70;;;2.40;;
59587;SDS011;45412;54.472;18.464;2022-09-12T06:00:09;8.30;;;2.20;;
59587;SDS011;45412;54.472;18.464;2022-09-12T06:03:01;6.40;;;2.10;;
59587;SDS011;45412;54.472;18.464;2022-09-12T06:05:49;7.80;;;2.20;;
59587;SDS011;45412;54.472;18.464;2022-09-12T06:08:37;6.60;;;2.00;;
59587;SDS011;45412;54.472;18.464;2022-09-12T06:11:28;7.70;;;2.30;;
59587;SDS011;45412;54.472;18.464;2022-09-12T06:14:18;7.30;;;1.70;;
59587;SDS011;45412;54.472;18.464;2022-09-12T06:17:07;6.70;;;1.90;;
59587;SDS011;45412;54.472;18.464;2022-09-12T06:19:54;7.60;;;2.10;;
59587;SDS011;45412;54.472;18.464;2022-09-12T06:22:43;8.10;;;2.00;;
59587;SDS011;45412;54.472;18.464;2022-09-12T06:25:31;5.80;;;1.90;;
59587;SDS011;45412;54.472;18.464;2022-09-12T06:28:19;6.00;;;2.00;;
59587;SDS011;45412;54.472;18.464;2022-09-12T06:31:12;5.90;;;1.90;;
59587;SDS011;45412;54.472;18.464;2022-09-12T06:34:03;7.50;;;1.70;;
59587;SDS011;45412;54.472;18.464;2022-09-12T06:36:53;5.80;;;1.50;;
59587;SDS011;45412;54.472;18.464;2022-09-12T06:39:41;5.20;;;1.30;;
59587;SDS011;45412;54.472;18.464;2022-09-12T06:42:29;5.90;;;1.50;;
59587;SDS011;45412;54.472;18.464;2022-09-12T06:45:16;5.30;;;1.40;;
59587;SDS011;45412;54.472;18.464;2022-09-12T06:48:06;5.10;;;1.20;;
59587;SDS011;45412;54.472;18.464;2022-09-12T06:50:56;4.90;;;1.20;;
59587;SDS011;45412;54.472;18.464;2022-09-12T06:53:48;5.90;;;1.40;;
59587;SDS011;45412;54.472;18.464;2022-09-12T06:56:36;7.20;;;1.20;;
59587;SDS011;45412;54.472;18.464;2022-09-12T06:59:24;4.70;;;1.00;;
59587;SDS011;45412;54.472;18.464;2022-09-12T07:02:12;5.00;;;1.10;;
59587;SDS011;45412;54.472;18.464;2022-09-12T07:05:00;4.50;;;1.10;;
59587;SDS011;45412;54.472;18.464;2022-09-12T07:07:48;5.80;;;1.00;;
59587;SDS011;45412;54.472;18.464;2022-09-12T07:10:36;6.00;;;1.00;;
59587;SDS011;45412;54.472;18.464;2022-09-12T07:13:24;5.00;;;1.10;;
59587;SDS011;45412;54.472;18.464;2022-09-12T07:16:13;5.80;;;0.70;;
59587;SDS011;45412;54.472;18.464;2022-09-12T07:19:07;5.00;;;0.90;;
59587;SDS011;45412;54.472;18.464;2022-09-12T07:21:55;5.60;;;1.00;;
59587;SDS011;45412;54.472;18.464;2022-09-12T07:24:45;5.30;;;1.10;;
59587;SDS011;45412;54.472;18.464;2022-09-12T07:27:34;5.50;;;1.00;;
59587;SDS011;45412;54.472;18.464;2022-09-12T07:30:23;6.30;;;0.90;;
59587;SDS011;45412;54.472;18.464;2022-09-12T07:33:14;7.70;;;1.20;;
59587;SDS011;45412;54.472;18.464;2022-09-12T07:36:04;5.80;;;1.10;;
59587;SDS011;45412;54.472;18.464;2022-09-12T07:38:55;4.60;;;0.90;;
59587;SDS011;45412;54.472;18.464;2022-09-12T07:41:45;5.90;;;0.90;;
59587;SDS011;45412;54.472;18.464;2022-09-12T07:44:33;6.50;;;1.00;;
59587;SDS011;45412;54.472;18.464;2022-09-12T07:47:21;5.30;;;1.00;;
59587;SDS011;45412;54.472;18.464;2022-09-12T07:50:09;4.90;;;0.90;;
59587;SDS011;45412;54.472;18.464;2022-09-12T07:52:58;7.70;;;1.00;;
59587;SDS011;45412;54.472;18.464;2022-09-12T07:55:52;7.30;;;1.30;;
59587;SDS011;45412;54.472;18.464;2022-09-12T07:58:42;5.50;;;1.20;;
59587;SDS011;45412;54.472;18.464;2022-09-12T08:01:31;4.90;;;1.00;;
59587;SDS011;45412;54.472;18.464;2022-09-12T08:04:19;4.80;;;1.00;;
59587;SDS011;45412;54.472;18.464;2022-09-12T08:07:08;5.60;;;1.00;;
59587;SDS011;45412;54.472;18.464;2022-09-12T08:09:55;4.40;;;0.90;;
59587;SDS011;45412;54.472;18.464;2022-09-12T08:12:44;5.90;;;1.10;;
59587;SDS011;45412;54.472;18.464;2022-09-12T08:15:33;4.80;;;0.90;;
59587;SDS011;45412;54.472;18.464;2022-09-12T08:18:21;4.60;;;0.80;;
59587;SDS011;45412;54.472;18.464;2022-09-12T08:21:13;5.70;;;1.00;;
59587;SDS011;45412;54.472;18.464;2022-09-12T08:24:04;5.80;;;1.30;;
59587;SDS011;45412;54.472;18.464;2022-09-12T08:26:53;5.20;;;1.20;;
59587;SDS011;45412;54.472;18.464;2022-09-12T08:29:41;5.20;;;1.00;;
59587;SDS011;45412;54.472;18.464;2022-09-12T08:32:29;6.10;;;1.20;;
59587;SDS011;45412;54.472;18.464;2022-09-12T08:35:26;5.50;;;1.10;;
59587;SDS011;45412;54.472;18.464;2022-09-12T08:38:14;5.90;;;1.20;;
59587;SDS011;45412;54.472;18.464;2022-09-12T08:59:01;5.50;;;1.00;;
59587;SDS011;45412;54.472;18.464;2022-09-12T09:01:49;4.00;;;0.80;;
59587;SDS011;45412;54.472;18.464;2022-09-12T09:04:45;5.10;;;1.10;;
59587;SDS011;45412;54.472;18.464;2022-09-12T09:17:50;6.80;;;1.30;;
59587;SDS011;45412;54.472;18.464;2022-09-12T09:21:01;5.60;;;1.10;;
59587;SDS011;45412;54.472;18.464;2022-09-12T09:24:47;6.60;;;1.30;;
59587;SDS011;45412;54.472;18.464;2022-09-12T09:28:44;6.20;;;1.20;;
59587;SDS011;45412;54.472;18.464;2022-09-12T09:32:17;4.60;;;1.00;;
59587;SDS011;45412;54.472;18.464;2022-09-12T09:35:46;6.00;;;1.00;;
59587;SDS011;45412;54.472;18.464;2022-09-12T09:38:51;6.20;;;1.20;;
59587;SDS011;45412;54.472;18.464;2022-09-12T09:44:39;6.00;;;1.30;;
59587;SDS011;45412;54.472;18.464;2022-09-12T09:47:27;4.70;;;1.10;;
59587;SDS011;45412;54.472;18.464;2022-09-12T09:50:15;5.20;;;1.00;;
59587;SDS011;45412;54.472;18.464;2022-09-12T09:53:04;5.10;;;1.10;;
59587;SDS011;45412;54.472;18.464;2022-09-12T09:55:55;5.80;;;0.90;;
59587;SDS011;45412;54.472;18.464;2022-09-12T09:58:49;5.10;;;1.10;;
59587;SDS011;45412;54.472;18.464;2022-09-12T10:05:00;6.50;;;1.00;;
59587;SDS011;45412;54.472;18.464;2022-09-12T10:07:51;5.70;;;0.90;;
59587;SDS011;45412;54.472;18.464;2022-09-12T10:10:59;5.50;;;0.90;;
59587;SDS011;45412;54.472;18.464;2022-09-12T10:13:55;5.50;;;1.30;;
59587;SDS011;45412;54.472;18.464;2022-09-12T10:16:49;6.80;;;1.00;;
59587;SDS011;45412;54.472;18.464;2022-09-12T10:19:41;4.60;;;1.10;;
59587;SDS011;45412;54.472;18.464;2022-09-12T10:22:29;4.80;;;1.00;;
59587;SDS011;45412;54.472;18.464;2022-09-12T10:25:18;5.50;;;0.90;;
59587;SDS011;45412;54.472;18.464;2022-09-12T10:28:18;5.40;;;1.00;;
59587;SDS011;45412;54.472;18.464;2022-09-12T10:31:25;6.20;;;0.90;;
59587;SDS011;45412;54.472;18.464;2022-09-12T10:34:33;5.20;;;0.90;;
59587;SDS011;45412;54.472;18.464;2022-09-12T10:37:32;5.90;;;1.10;;
59587;SDS011;45412;54.472;18.464;2022-09-12T10:40:24;5.70;;;1.40;;
59587;SDS011;45412;54.472;18.464;2022-09-12T10:43:37;4.40;;;1.00;;
59587;SDS011;45412;54.472;18.464;2022-09-12T10:46:29;5.00;;;1.00;;
59587;SDS011;45412;54.472;18.464;2022-09-12T10:49:28;5.10;;;1.20;;
59587;SDS011;45412;54.472;18.464;2022-09-12T10:52:24;4.90;;;1.10;;
59587;SDS011;45412;54.472;18.464;2022-09-12T10:55:14;4.30;;;1.00;;
59587;SDS011;45412;54.472;18.464;2022-09-12T10:58:12;5.40;;;1.10;;
59587;SDS011;45412;54.472;18.464;2022-09-12T11:08:09;4.60;;;0.90;;
59587;SDS011;45412;54.472;18.464;2022-09-12T11:14:23;5.20;;;0.90;;
59587;SDS011;45412;54.472;18.464;2022-09-12T11:30:11;5.80;;;0.90;;
59587;SDS011;45412;54.472;18.464;2022-09-12T11:39:38;5.00;;;1.10;;
59587;SDS011;45412;54.472;18.464;2022-09-12T11:42:34;5.30;;;0.80;;
59587;SDS011;45412;54.472;18.464;2022-09-12T11:45:28;5.10;;;1.20;;
59587;SDS011;45412;54.472;18.464;2022-09-12T11:51:38;5.10;;;1.00;;
59587;SDS011;45412;54.472;18.464;2022-09-12T11:57:56;4.50;;;1.00;;
59587;SDS011;45412;54.472;18.464;2022-09-12T12:00:54;5.30;;;1.00;;
59587;SDS011;45412;54.472;18.464;2022-09-12T12:03:46;6.20;;;1.00;;
59587;SDS011;45412;54.472;18.464;2022-09-12T12:06:55;6.50;;;1.20;;
59587;SDS011;45412;54.472;18.464;2022-09-12T12:09:55;5.00;;;1.20;;
59587;SDS011;45412;54.472;18.464;2022-09-12T12:12:43;6.60;;;1.90;;
59587;SDS011;45412;54.472;18.464;2022-09-12T12:15:33;6.60;;;1.20;;
59587;SDS011;45412;54.472;18.464;2022-09-12T12:18:28;5.70;;;1.20;;
59587;SDS011;45412;54.472;18.464;2022-09-12T12:21:28;5.10;;;1.30;;
59587;SDS011;45412;54.472;18.464;2022-09-12T12:24:24;6.70;;;1.10;;
59587;SDS011;45412;54.472;18.464;2022-09-12T12:27:24;5.70;;;1.10;;
59587;SDS011;45412;54.472;18.464;2022-09-12T12:36:09;6.80;;;1.20;;
59587;SDS011;45412;54.472;18.464;2022-09-12T12:48:15;6.20;;;1.20;;
59587;SDS011;45412;54.472;18.464;2022-09-12T12:54:28;4.40;;;1.20;;
59587;SDS011;45412;54.472;18.464;2022-09-12T12:57:31;4.70;;;1.10;;
59587;SDS011;45412;54.472;18.464;2022-09-12T13:00:35;5.30;;;1.20;;
59587;SDS011;45412;54.472;18.464;2022-09-12T13:03:29;6.80;;;1.70;;
59587;SDS011;45412;54.472;18.464;2022-09-12T13:06:30;4.90;;;1.10;;
59587;SDS011;45412;54.472;18.464;2022-09-12T13:12:35;6.30;;;1.20;;
59587;SDS011;45412;54.472;18.464;2022-09-12T13:18:27;4.70;;;1.20;;
59587;SDS011;45412;54.472;18.464;2022-09-12T13:21:27;5.30;;;1.30;;
59587;SDS011;45412;54.472;18.464;2022-09-12T13:24:15;6.70;;;1.80;;
59587;SDS011;45412;54.472;18.464;2022-09-12T13:27:21;6.10;;;1.30;;
59587;SDS011;45412;54.472;18.464;2022-09-12T13:30:14;5.30;;;1.20;;
59587;SDS011;45412;54.472;18.464;2022-09-12T13:33:26;4.60;;;1.10;;
59587;SDS011;45412;54.472;18.464;2022-09-12T13:43:41;5.00;;;1.10;;
59587;SDS011;45412;54.472;18.464;2022-09-12T13:46:33;6.70;;;1.20;;
59587;SDS011;45412;54.472;18.464;2022-09-12T13:52:28;6.00;;;1.30;;
59587;SDS011;45412;54.472;18.464;2022-09-12T13:55:33;4.80;;;1.30;;
59587;SDS011;45412;54.472;18.464;2022-09-12T14:01:15;6.90;;;1.40;;
59587;SDS011;45412;54.472;18.464;2022-09-12T14:04:29;8.30;;;1.40;;
59587;SDS011;45412;54.472;18.464;2022-09-12T14:10:43;5.00;;;1.30;;
59587;SDS011;45412;54.472;18.464;2022-09-12T14:13:37;5.30;;;1.30;;
59587;SDS011;45412;54.472;18.464;2022-09-12T14:16:25;4.80;;;1.20;;
59587;SDS011;45412;54.472;18.464;2022-09-12T14:19:15;5.50;;;1.10;;
59587;SDS011;45412;54.472;18.464;2022-09-12T14:22:12;5.50;;;1.20;;
59587;SDS011;45412;54.472;18.464;2022-09-12T14:25:04;5.70;;;1.50;;
59587;SDS011;45412;54.472;18.464;2022-09-12T14:27:57;6.30;;;2.00;;
59587;SDS011;45412;54.472;18.464;2022-09-12T14:33:54;5.90;;;1.40;;
59587;SDS011;45412;54.472;18.464;2022-09-12T14:36:57;5.50;;;1.30;;
59587;SDS011;45412;54.472;18.464;2022-09-12T14:39:45;6.60;;;1.50;;
59587;SDS011;45412;54.472;18.464;2022-09-12T14:42:33;6.60;;;1.30;;
59587;SDS011;45412;54.472;18.464;2022-09-12T14:45:29;6.00;;;1.50;;
59587;SDS011;45412;54.472;18.464;2022-09-12T14:48:25;5.60;;;1.50;;
59587;SDS011;45412;54.472;18.464;2022-09-12T14:51:32;5.70;;;1.50;;
59587;SDS011;45412;54.472;18.464;2022-09-12T14:57:36;5.80;;;1.40;;
59587;SDS011;45412;54.472;18.464;2022-09-12T15:00:28;5.10;;;1.60;;
59587;SDS011;45412;54.472;18.464;2022-09-12T15:06:23;4.90;;;1.40;;
59587;SDS011;45412;54.472;18.464;2022-09-12T15:09:18;5.30;;;1.70;;
59587;SDS011;45412;54.472;18.464;2022-09-12T15:12:09;5.80;;;1.50;;
59587;SDS011;45412;54.472;18.464;2022-09-12T15:15:17;6.20;;;1.40;;
59587;SDS011;45412;54.472;18.464;2022-09-12T15:18:07;7.50;;;1.90;;
59587;SDS011;45412;54.472;18.464;2022-09-12T15:21:01;5.50;;;1.80;;
59587;SDS011;45412;54.472;18.464;2022-09-12T15:23:52;5.90;;;1.30;;
59587;SDS011;45412;54.472;18.464;2022-09-12T15:26:40;5.10;;;1.40;;
59587;SDS011;45412;54.472;18.464;2022-09-12T15:29:28;5.80;;;1.60;;
59587;SDS011;45412;54.472;18.464;2022-09-12T15:32:28;5.80;;;1.50;;
59587;SDS011;45412;54.472;18.464;2022-09-12T15:35:18;5.50;;;1.70;;
59587;SDS011;45412;54.472;18.464;2022-09-12T15:38:11;7.00;;;1.70;;
59587;SDS011;45412;54.472;18.464;2022-09-12T15:40:59;5.80;;;1.70;;
59587;SDS011;45412;54.472;18.464;2022-09-12T15:43:50;7.10;;;1.70;;
59587;SDS011;45412;54.472;18.464;2022-09-12T15:46:47;7.80;;;1.60;;
59587;SDS011;45412;54.472;18.464;2022-09-12T15:49:37;6.10;;;1.60;;
59587;SDS011;45412;54.472;18.464;2022-09-12T15:52:25;7.60;;;1.90;;
59587;SDS011;45412;54.472;18.464;2022-09-12T15:55:19;6.90;;;1.80;;
59587;SDS011;45412;54.472;18.464;2022-09-12T15:58:12;5.90;;;1.60;;
59587;SDS011;45412;54.472;18.464;2022-09-12T16:01:03;6.70;;;2.00;;
59587;SDS011;45412;54.472;18.464;2022-09-12T16:03:55;5.60;;;1.90;;
59587;SDS011;45412;54.472;18.464;2022-09-12T16:06:46;6.60;;;1.80;;
59587;SDS011;45412;54.472;18.464;2022-09-12T16:09:34;6.20;;;1.60;;
59587;SDS011;45412;54.472;18.464;2022-09-12T16:12:25;7.00;;;2.00;;
59587;SDS011;45412;54.472;18.464;2022-09-12T16:15:16;6.30;;;1.60;;
59587;SDS011;45412;54.472;18.464;2022-09-12T16:18:12;5.20;;;1.50;;
59587;SDS011;45412;54.472;18.464;2022-09-12T16:21:02;6.60;;;1.50;;
59587;SDS011;45412;54.472;18.464;2022-09-12T16:23:49;6.20;;;1.60;;
59587;SDS011;45412;54.472;18.464;2022-09-12T16:26:41;6.90;;;1.80;;
59587;SDS011;45412;54.472;18.464;2022-09-12T16:29:31;8.00;;;1.90;;
59587;SDS011;45412;54.472;18.464;2022-09-12T16:32:19;5.80;;;1.70;;
59587;SDS011;45412;54.472;18.464;2022-09-12T16:35:10;6.90;;;2.10;;
59587;SDS011;45412;54.472;18.464;2022-09-12T16:38:01;7.00;;;1.80;;
59587;SDS011;45412;54.472;18.464;2022-09-12T16:40:49;7.80;;;1.90;;
59587;SDS011;45412;54.472;18.464;2022-09-12T16:43:37;7.60;;;2.20;;
59587;SDS011;45412;54.472;18.464;2022-09-12T16:46:27;6.50;;;2.00;;
59587;SDS011;45412;54.472;18.464;2022-09-12T16:49:15;6.90;;;2.00;;
59587;SDS011;45412;54.472;18.464;2022-09-12T16:52:03;7.30;;;1.90;;
59587;SDS011;45412;54.472;18.464;2022-09-12T16:54:57;6.70;;;1.90;;
59587;SDS011;45412;54.472;18.464;2022-09-12T16:57:47;7.60;;;2.60;;
59587;SDS011;45412;54.472;18.464;2022-09-12T17:00:40;6.10;;;1.90;;
59587;SDS011;45412;54.472;18.464;2022-09-12T17:03:29;6.50;;;2.40;;
59587;SDS011;45412;54.472;18.464;2022-09-12T17:06:19;6.50;;;2.50;;
59587;SDS011;45412;54.472;18.464;2022-09-12T17:09:08;7.00;;;2.30;;
59587;SDS011;45412;54.472;18.464;2022-09-12T17:11:57;6.40;;;2.30;;
59587;SDS011;45412;54.472;18.464;2022-09-12T17:14:45;8.30;;;2.30;;
59587;SDS011;45412;54.472;18.464;2022-09-12T17:17:34;7.10;;;2.40;;
59587;SDS011;45412;54.472;18.464;2022-09-12T17:20:24;7.20;;;2.00;;
59587;SDS011;45412;54.472;18.464;2022-09-12T17:23:12;6.70;;;2.30;;
59587;SDS011;45412;54.472;18.464;2022-09-12T17:26:01;7.90;;;2.40;;
59587;SDS011;45412;54.472;18.464;2022-09-12T17:28:49;10.30;;;2.50;;
59587;SDS011;45412;54.472;18.464;2022-09-12T17:31:41;10.20;;;3.80;;
59587;SDS011;45412;54.472;18.464;2022-09-12T17:34:37;21.30;;;8.10;;
59587;SDS011;45412;54.472;18.464;2022-09-12T17:37:28;25.70;;;10.30;;
59587;SDS011;45412;54.472;18.464;2022-09-12T17:40:22;20.70;;;8.60;;
59587;SDS011;45412;54.472;18.464;2022-09-12T17:43:30;18.90;;;5.70;;
59587;SDS011;45412;54.472;18.464;2022-09-12T17:46:21;13.00;;;5.40;;
59587;SDS011;45412;54.472;18.464;2022-09-12T17:49:14;14.00;;;5.10;;
59587;SDS011;45412;54.472;18.464;2022-09-12T17:52:03;13.40;;;5.30;;
59587;SDS011;45412;54.472;18.464;2022-09-12T17:54:51;12.10;;;5.40;;
59587;SDS011;45412;54.472;18.464;2022-09-12T17:57:39;11.10;;;5.00;;
59587;SDS011;45412;54.472;18.464;2022-09-12T18:00:29;11.90;;;5.80;;
59587;SDS011;45412;54.472;18.464;2022-09-12T18:03:36;17.30;;;6.60;;
59587;SDS011;45412;54.472;18.464;2022-09-12T18:06:24;14.90;;;5.80;;
59587;SDS011;45412;54.472;18.464;2022-09-12T18:09:13;12.70;;;5.60;;
59587;SDS011;45412;54.472;18.464;2022-09-12T18:12:05;15.80;;;6.20;;
59587;SDS011;45412;54.472;18.464;2022-09-12T18:14:54;12.90;;;6.10;;
59587;SDS011;45412;54.472;18.464;2022-09-12T18:17:42;13.40;;;6.10;;
59587;SDS011;45412;54.472;18.464;2022-09-12T18:20:33;12.80;;;5.80;;
59587;SDS011;45412;54.472;18.464;2022-09-12T18:23:21;14.90;;;6.60;;
59587;SDS011;45412;54.472;18.464;2022-09-12T18:26:09;13.50;;;6.40;;
59587;SDS011;45412;54.472;18.464;2022-09-12T18:28:59;13.20;;;6.30;;
59587;SDS011;45412;54.472;18.464;2022-09-12T18:31:51;14.80;;;7.30;;
59587;SDS011;45412;54.472;18.464;2022-09-12T18:34:39;13.80;;;6.90;;
59587;SDS011;45412;54.472;18.464;2022-09-12T18:37:27;15.30;;;6.60;;
59587;SDS011;45412;54.472;18.464;2022-09-12T18:40:15;15.50;;;6.60;;
59587;SDS011;45412;54.472;18.464;2022-09-12T18:43:03;16.50;;;6.50;;
59587;SDS011;45412;54.472;18.464;2022-09-12T18:45:52;13.80;;;5.90;;
59587;SDS011;45412;54.472;18.464;2022-09-12T18:48:40;14.80;;;6.50;;
59587;SDS011;45412;54.472;18.464;2022-09-12T18:51:31;15.80;;;8.00;;
59587;SDS011;45412;54.472;18.464;2022-09-12T18:54:22;15.20;;;7.00;;
59587;SDS011;45412;54.472;18.464;2022-09-12T18:57:10;16.00;;;7.40;;
59587;SDS011;45412;54.472;18.464;2022-09-12T18:59:58;14.20;;;6.90;;
59587;SDS011;45412;54.472;18.464;2022-09-12T19:02:46;13.90;;;7.60;;
59587;SDS011;45412;54.472;18.464;2022-09-12T19:05:34;14.30;;;6.60;;
59587;SDS011;45412;54.472;18.464;2022-09-12T19:08:23;12.90;;;6.40;;
59587;SDS011;45412;54.472;18.464;2022-09-12T19:11:11;12.90;;;6.60;;
59587;SDS011;45412;54.472;18.464;2022-09-12T19:14:00;14.70;;;7.00;;
59587;SDS011;45412;54.472;18.464;2022-09-12T19:16:49;13.20;;;7.10;;
59587;SDS011;45412;54.472;18.464;2022-09-12T19:19:38;15.10;;;7.10;;
59587;SDS011;45412;54.472;18.464;2022-09-12T19:22:28;14.20;;;6.50;;
59587;SDS011;45412;54.472;18.464;2022-09-12T19:25:16;13.00;;;6.40;;
59587;SDS011;45412;54.472;18.464;2022-09-12T19:28:04;12.90;;;6.70;;
59587;SDS011;45412;54.472;18.464;2022-09-12T19:30:52;14.40;;;6.50;;
59587;SDS011;45412;54.472;18.464;2022-09-12T19:33:40;15.50;;;6.90;;
59587;SDS011;45412;54.472;18.464;2022-09-12T19:36:29;14.50;;;5.80;;
59587;SDS011;45412;54.472;18.464;2022-09-12T19:39:33;13.70;;;6.20;;
59587;SDS011;45412;54.472;18.464;2022-09-12T19:42:28;12.80;;;5.60;;
59587;SDS011;45412;54.472;18.464;2022-09-12T19:45:16;12.80;;;5.70;;
59587;SDS011;45412;54.472;18.464;2022-09-12T19:48:04;11.10;;;5.40;;
59587;SDS011;45412;54.472;18.464;2022-09-12T19:50:52;12.60;;;6.20;;